Terminal Aerodrome Forecast
Issued by NWS Mt. Holly, NJ

Home | Current Version | Previous Version | Text Only | Print | Product List | Glossary On
Versions: 1 2 3 4 5 6 7 8 9 10 11 12 13 14 15 16 17 18
000
FTUS41 KPHI 251700
TAFILG
TAF
KILG 251727Z 2518/2618 25008G16KT P6SM FEW040
     FM252300 27010KT P6SM SCT050
     FM261400 30017G27KT P6SM SCT050=

USA.gov is the U.S. government's official web portal to all federal, state and local government web resources and services.